Time;durP1;ratioP1;P1;durP2;ratioP2;P2;SDS_P1;SDS_P2;PMS_P1;PMS_P2;Temp;Humidity;BMP_temperature;BMP_pressure;BME280_temperature;BME280_humidity;BME280_pressure;Samples;Min_cycle;Max_cycle;Signal;HPM_P1;HPM_P2
2023/04/09 00:02:09;;;;;;;;;;;;;;;9.42;90.24;102599.69;5052986;28;19931;-49
2023/04/09 00:04:35;;;;;;;;;;;;;;;9.40;90.12;102604.72;5049008;28;20414;-47
2023/04/09 00:07:00;;;;;;;;;;;;;;;9.39;90.39;102602.03;5055554;28;20411;-46
2023/04/09 00:09:25;;;;;;;;;;;;;;;9.38;90.81;102600.28;5031149;28;19920;-47
2023/04/09 00:11:50;;;;;;;;;;;;;;;9.37;91.22;102601.97;5050973;28;20197;-48
2023/04/09 00:14:16;;;;;;;;;;;;;;;9.37;91.20;102598.50;5052942;28;19920;-46
2023/04/09 00:16:41;;;;;;;;;;;;;;;9.37;90.56;102590.81;5056218;28;19924;-45
2023/04/09 00:19:06;;;;;;;;;;;;;;;9.38;91.35;102595.16;5057125;28;19927;-47
2023/04/09 00:21:31;;;;;;;;;;;;;;;9.37;91.62;102588.25;5056526;28;19995;-45
2023/04/09 00:23:57;;;;;;;;;;;;;;;9.37;90.84;102595.94;5054337;28;19921;-44
2023/04/09 00:26:22;;;;;;;;;;;;;;;9.35;91.15;102587.28;5053186;28;19917;-47
2023/04/09 00:28:47;;;;;;;;;;;;;;;9.34;91.70;102591.53;5056281;28;20453;-47
2023/04/09 00:31:12;;;;;;;;;;;;;;;9.36;90.83;102589.03;5043276;28;19986;-46
2023/04/09 00:33:38;;;;;;;;;;;;;;;9.34;91.67;102585.47;5053614;28;19921;-46
2023/04/09 00:36:03;;;;;;;;;;;;;;;9.33;91.61;102578.56;5055307;28;19920;-46
2023/04/09 00:38:28;;;;;;;;;;;;;;;9.32;92.03;102584.50;5059189;28;20375;-46
2023/04/09 00:40:53;;;;;;;;;;;;;;;9.32;91.73;102580.25;5051966;28;19916;-47
2023/04/09 00:43:19;;;;;;;;;;;;;;;9.32;91.71;102577.69;5062112;28;19920;-46
2023/04/09 00:45:44;;;;;;;;;;;;;;;9.31;91.82;102580.16;5057281;28;19916;-46
2023/04/09 00:48:11;;;;;;;;;;;;;;;9.31;91.60;102581.06;5057133;28;19928;-47
2023/04/09 00:50:36;;;;;;;;;;;;;;;9.30;92.04;102576.72;5061208;28;19917;-46
2023/04/09 00:53:01;;;;;;;;;;;;;;;9.31;92.92;102580.16;5055292;28;19917;-48
2023/04/09 00:55:27;;;;;;;;;;;;;;;9.30;92.71;102573.25;5064030;28;19955;-46
2023/04/09 00:57:52;;;;;;;;;;;;;;;9.30;92.82;102578.41;5055450;28;19908;-47
2023/04/09 01:00:17;;;;;;;;;;;;;;;9.29;92.21;102579.19;5060386;28;19939;-45
2023/04/09 01:02:43;;;;;;;;;;;;;;;9.29;92.16;102579.19;5061201;28;20482;-48
2023/04/09 01:05:08;;;;;;;;;;;;;;;9.27;93.05;102573.94;5058655;28;19920;-46
2023/04/09 01:07:41;;;;;;;;;;;;;;;9.26;92.34;102576.44;5053768;28;19917;-45
2023/04/09 01:10:21;;;;;;;;;;;;;;;9.25;93.52;102564.41;5059928;28;19931;-45
2023/04/09 01:12:53;;;;;;;;;;;;;;;9.24;92.77;102566.09;5054964;28;20004;-46
2023/04/09 01:15:24;;;;;;;;;;;;;;;9.22;92.92;102559.06;5056423;28;19947;-45
2023/04/09 01:17:53;;;;;;;;;;;;;;;9.20;92.60;102564.09;5055584;28;19968;-45
2023/04/09 01:20:26;;;;;;;;;;;;;;;9.20;92.63;102563.22;5055268;28;19971;-47
2023/04/09 01:23:10;;;;;;;;;;;;;;;9.19;93.18;102561.47;5059942;28;19912;-46
2023/04/09 01:25:38;;;;;;;;;;;;;;;9.16;93.52;102559.59;5059449;28;19912;-45
2023/04/09 01:28:09;;;;;;;;;;;;;;;9.17;92.62;102560.50;5051656;28;20008;-46
2023/04/09 01:30:34;;;;;;;;;;;;;;;9.14;93.30;102556.91;5057074;28;19913;-45
2023/04/09 01:32:59;;;;;;;;;;;;;;;9.14;93.17;102550.91;5054052;28;19916;-48
2023/04/09 01:35:27;;;;;;;;;;;;;;;9.13;93.69;102560.28;5055625;28;20364;-47
2023/04/09 01:37:53;;;;;;;;;;;;;;;9.14;94.06;102554.34;5054412;28;19958;-45
2023/04/09 01:40:18;;;;;;;;;;;;;;;9.15;93.22;102547.53;5057418;28;20152;-45
2023/04/09 01:42:44;;;;;;;;;;;;;;;9.13;93.46;102557.72;5058431;28;19912;-46
2023/04/09 01:45:10;;;;;;;;;;;;;;;9.13;93.31;102551.69;5041913;28;20012;-46
2023/04/09 01:47:36;;;;;;;;;;;;;;;9.12;93.42;102552.50;5057416;28;20012;-46
2023/04/09 01:50:02;;;;;;;;;;;;;;;9.09;93.29;102553.19;5056640;28;19919;-46
2023/04/09 01:52:27;;;;;;;;;;;;;;;9.11;93.21;102551.63;5052812;28;19908;-45
2023/04/09 01:54:53;;;;;;;;;;;;;;;9.08;93.71;102542.84;5051380;28;19919;-48
2023/04/09 01:57:18;;;;;;;;;;;;;;;9.07;93.81;102549.66;5054448;28;19967;-47
2023/04/09 01:59:43;;;;;;;;;;;;;;;9.07;93.88;102548.75;5053938;28;19948;-47
2023/04/09 02:02:11;;;;;;;;;;;;;;;9.06;94.50;102553.00;5052993;28;19916;-49
2023/04/09 02:04:39;;;;;;;;;;;;;;;9.06;94.43;102553.00;5051193;28;19913;-47
2023/04/09 02:07:10;;;;;;;;;;;;;;;9.07;93.79;102559.91;5054170;28;19916;-47
2023/04/09 02:09:38;;;;;;;;;;;;;;;9.06;94.85;102552.13;5051985;28;19931;-46
2023/04/09 02:12:04;;;;;;;;;;;;;;;9.07;94.39;102551.34;5051385;28;19920;-49
2023/04/09 02:14:34;;;;;;;;;;;;;;;9.04;95.23;102538.31;5059459;28;20366;-46
2023/04/09 02:17:00;;;;;;;;;;;;;;;9.05;95.44;102548.69;5055107;28;19920;-45
2023/04/09 02:19:37;;;;;;;;;;;;;;;9.04;94.93;102551.13;5061419;28;19931;-46
2023/04/09 02:22:03;;;;;;;;;;;;;;;9.02;95.16;102551.03;5049453;28;19981;-46
2023/04/09 02:24:28;;;;;;;;;;;;;;;9.02;95.03;102542.47;5055304;28;20036;-45
2023/04/09 02:26:53;;;;;;;;;;;;;;;9.03;94.40;102547.69;5051428;28;20391;-44
2023/04/09 02:29:19;;;;;;;;;;;;;;;9.00;95.50;102539.81;5060506;28;20353;-44
2023/04/09 02:31:44;;;;;;;;;;;;;;;9.01;95.84;102543.25;5054223;28;20334;-46
2023/04/09 02:34:09;;;;;;;;;;;;;;;9.00;95.01;102544.94;5054087;28;19919;-45
2023/04/09 02:36:34;;;;;;;;;;;;;;;8.96;95.53;102537.84;5052939;28;20382;-45
2023/04/09 02:39:00;;;;;;;;;;;;;;;8.94;96.09;102534.31;5052922;28;20387;-47
2023/04/09 02:41:25;;;;;;;;;;;;;;;8.95;95.55;102536.06;5058410;28;19923;-46
2023/04/09 02:43:50;;;;;;;;;;;;;;;8.93;95.80;102531.66;5060585;28;19940;-46
2023/04/09 02:46:15;;;;;;;;;;;;;;;8.96;95.56;102539.53;5055906;28;19951;-46
2023/04/09 02:48:41;;;;;;;;;;;;;;;8.93;96.54;102531.66;5055665;28;19920;-46
2023/04/09 02:51:06;;;;;;;;;;;;;;;8.93;96.21;102531.66;5057354;28;20299;-46
2023/04/09 02:53:31;;;;;;;;;;;;;;;8.93;95.77;102524.84;5055541;28;19939;-46
2023/04/09 02:55:57;;;;;;;;;;;;;;;8.93;95.90;102529.97;5058302;28;19923;-46
2023/04/09 02:58:22;;;;;;;;;;;;;;;8.93;95.62;102529.09;5056786;28;19939;-46
2023/04/09 03:00:47;;;;;;;;;;;;;;;8.94;94.95;102526.59;5059796;28;19917;-44
2023/04/09 03:03:12;;;;;;;;;;;;;;;8.92;95.93;102525.63;5052047;28;19921;-46
2023/04/09 03:05:38;;;;;;;;;;;;;;;8.93;95.53;102523.97;5054575;28;19920;-47
2023/04/09 03:08:03;;;;;;;;;;;;;;;8.90;96.25;102524.63;5059083;28;19942;-45
2023/04/09 03:10:28;;;;;;;;;;;;;;;8.89;95.85;102520.31;5051089;28;19917;-46
2023/04/09 03:12:54;;;;;;;;;;;;;;;8.87;96.27;102527.03;5055266;28;19947;-46
2023/04/09 03:15:19;;;;;;;;;;;;;;;8.88;96.53;102518.53;5057274;28;20288;-45
2023/04/09 03:17:44;;;;;;;;;;;;;;;8.86;96.43;102525.25;5059923;28;19916;-45
2023/04/09 03:20:10;;;;;;;;;;;;;;;8.85;96.23;102515.78;5052956;28;19916;-45
2023/04/09 03:22:39;;;;;;;;;;;;;;;8.85;96.27;102515.78;5054360;28;19924;-45
2023/04/09 03:25:04;;;;;;;;;;;;;;;8.83;96.66;102514.81;5051411;28;20015;-45
2023/04/09 03:27:31;;;;;;;;;;;;;;;8.84;96.91;102514.00;5050664;28;20054;-46
2023/04/09 03:29:56;;;;;;;;;;;;;;;8.83;97.04;102517.38;5056653;28;19949;-45
2023/04/09 03:32:21;;;;;;;;;;;;;;;8.82;96.66;102508.78;5051981;28;19917;-46
2023/04/09 03:34:46;;;;;;;;;;;;;;;8.83;96.60;102504.53;5053951;28;19921;-46
2023/04/09 03:37:11;;;;;;;;;;;;;;;8.81;97.43;102514.72;5056867;28;20630;-45
2023/04/09 03:39:37;;;;;;;;;;;;;;;8.81;96.99;102503.56;5054484;28;20338;-45
2023/04/09 03:42:02;;;;;;;;;;;;;;;8.79;96.71;102505.13;5055035;28;19923;-45
2023/04/09 03:44:27;;;;;;;;;;;;;;;8.79;96.87;102505.13;5061357;28;20003;-44
2023/04/09 03:46:53;;;;;;;;;;;;;;;8.77;98.15;102496.47;5056405;28;19923;-45
2023/04/09 03:49:18;;;;;;;;;;;;;;;8.78;97.83;102501.69;5058526;28;19916;-45
2023/04/09 03:51:43;;;;;;;;;;;;;;;8.77;97.49;102499.91;5061584;28;20353;-45
2023/04/09 03:54:08;;;;;;;;;;;;;;;8.77;97.30;102496.47;5060249;28;19921;-45
2023/04/09 03:56:34;;;;;;;;;;;;;;;8.77;96.98;102491.34;5059944;28;19912;-45
2023/04/09 03:58:59;;;;;;;;;;;;;;;8.75;97.07;102492.94;5058230;28;20016;-46
2023/04/09 04:01:24;;;;;;;;;;;;;;;8.74;96.84;102493.72;5057013;28;19936;-48
2023/04/09 04:03:50;;;;;;;;;;;;;;;8.70;97.20;102489.19;5042860;28;19995;-45
2023/04/09 04:06:15;;;;;;;;;;;;;;;8.70;96.98;102497.78;5056443;28;19925;-45
2023/04/09 04:08:40;;;;;;;;;;;;;;;8.66;97.47;102497.47;5054074;28;19943;-46
2023/04/09 04:11:05;;;;;;;;;;;;;;;8.68;97.33;102498.47;5054162;28;20368;-45
2023/04/09 04:13:30;;;;;;;;;;;;;;;8.65;97.39;102499.16;5054119;28;20282;-46
2023/04/09 04:15:56;;;;;;;;;;;;;;;8.63;97.31;102493.06;5056877;28;19967;-45
2023/04/09 04:18:21;;;;;;;;;;;;;;;8.62;97.14;102501.56;5059403;28;19916;-44
2023/04/09 04:20:46;;;;;;;;;;;;;;;8.59;97.49;102504.78;5058535;28;19920;-45
2023/04/09 04:23:12;;;;;;;;;;;;;;;8.55;97.40;102500.28;5058903;28;19916;-45
2023/04/09 04:25:40;;;;;;;;;;;;;;;8.55;98.14;102497.72;5045271;28;19917;-45
2023/04/09 04:28:05;;;;;;;;;;;;;;;8.55;97.95;102501.94;5056388;28;19919;-44
2023/04/09 04:30:30;;;;;;;;;;;;;;;8.54;97.42;102503.63;5057613;28;19916;-45
2023/04/09 04:32:55;;;;;;;;;;;;;;;8.51;97.72;102503.44;5056878;28;19923;-45
2023/04/09 04:35:21;;;;;;;;;;;;;;;8.51;97.38;102503.44;5056751;28;19927;-44
2023/04/09 04:37:48;;;;;;;;;;;;;;;8.49;97.07;102494.78;5053272;28;19920;-45
2023/04/09 04:40:13;;;;;;;;;;;;;;;8.49;97.10;102493.88;5056737;28;20062;-44
2023/04/09 04:42:38;;;;;;;;;;;;;;;8.45;97.12;102495.38;5055444;28;20003;-45
2023/04/09 04:45:04;;;;;;;;;;;;;;;8.44;97.04;102501.28;5051498;28;19986;-45
2023/04/09 04:47:29;;;;;;;;;;;;;;;8.44;96.99;102501.28;5042634;28;19919;-44
2023/04/09 04:49:55;;;;;;;;;;;;;;;8.42;96.77;102502.84;5057021;28;20307;-44
2023/04/09 04:52:20;;;;;;;;;;;;;;;8.37;96.86;102505.91;5052717;28;19963;-45
2023/04/09 04:54:45;;;;;;;;;;;;;;;8.36;96.55;102505.03;5056634;28;20881;-45
2023/04/09 04:57:10;;;;;;;;;;;;;;;8.30;96.71;102507.16;5054287;28;19962;-46
2023/04/09 04:59:37;;;;;;;;;;;;;;;8.24;96.65;102505.09;5054405;28;19928;-49
2023/04/09 05:02:03;;;;;;;;;;;;;;;8.18;96.66;102511.50;5055734;28;19944;-51
2023/04/09 05:04:28;;;;;;;;;;;;;;;8.13;96.54;102501.00;5063530;28;19959;-51
2023/04/09 05:06:53;;;;;;;;;;;;;;;8.09;96.41;102505.81;5055276;28;19919;-50
2023/04/09 05:09:18;;;;;;;;;;;;;;;8.03;96.65;102499.50;5052473;28;20016;-53
2023/04/09 05:11:44;;;;;;;;;;;;;;;8.00;96.53;102506.97;5044216;28;19944;-49
2023/04/09 05:14:09;;;;;;;;;;;;;;;7.94;96.76;102506.59;5050361;28;19924;-53
2023/04/09 05:16:35;;;;;;;;;;;;;;;7.86;96.67;102500.09;5058648;28;19996;-50
2023/04/09 05:19:00;;;;;;;;;;;;;;;7.76;97.05;102497.69;5057974;28;19920;-51
2023/04/09 05:21:26;;;;;;;;;;;;;;;7.71;97.39;102506.78;5060065;28;20371;-51
2023/04/09 05:23:51;;;;;;;;;;;;;;;7.63;96.74;102503.69;5054447;28;19923;-53
2023/04/09 05:26:16;;;;;;;;;;;;;;;7.57;96.69;102502.41;5054819;28;19917;-50
2023/04/09 05:28:42;;;;;;;;;;;;;;;7.52;96.82;102502.09;5055340;28;20007;-53
2023/04/09 05:31:11;;;;;;;;;;;;;;;7.46;97.10;102504.25;5056946;28;20279;-51
2023/04/09 05:33:37;;;;;;;;;;;;;;;7.44;97.09;102514.38;5061281;28;19958;-49
2023/04/09 05:36:02;;;;;;;;;;;;;;;7.40;97.20;102511.50;5057316;28;19913;-53
2023/04/09 05:38:27;;;;;;;;;;;;;;;7.44;97.47;102509.28;5056143;28;20372;-53
2023/04/09 05:40:52;;;;;;;;;;;;;;;7.57;97.32;102510.97;5054838;28;19924;-54
2023/04/09 05:43:18;;;;;;;;;;;;;;;7.69;97.24;102505.78;5057274;28;19920;-52
2023/04/09 05:45:43;;;;;;;;;;;;;;;7.80;96.96;102510.81;5043845;28;19920;-54
2023/04/09 05:48:08;;;;;;;;;;;;;;;7.88;96.76;102513.00;5056761;28;20554;-51
2023/04/09 05:50:33;;;;;;;;;;;;;;;7.92;96.25;102513.28;5053263;28;19924;-49
2023/04/09 05:52:59;;;;;;;;;;;;;;;7.86;96.49;102519.69;5054764;28;20418;-50
2023/04/09 05:55:24;;;;;;;;;;;;;;;7.82;96.81;102510.91;5052246;28;19947;-52
2023/04/09 05:57:53;;;;;;;;;;;;;;;7.82;96.36;102513.47;5030396;28;19932;-51
2023/04/09 06:00:18;;;;;;;;;;;;;;;7.80;96.74;102509.94;5051429;28;20394;-51
2023/04/09 06:02:44;;;;;;;;;;;;;;;7.79;96.62;102521.84;5058133;28;19916;-52
2023/04/09 06:05:09;;;;;;;;;;;;;;;7.80;96.71;102520.19;5055138;28;20297;-51
2023/04/09 06:07:35;;;;;;;;;;;;;;;7.78;96.60;102521.75;5052523;28;19927;-50
2023/04/09 06:10:01;;;;;;;;;;;;;;;7.79;96.48;102521.84;5053409;28;19921;-50
2023/04/09 06:12:26;;;;;;;;;;;;;;;7.85;97.07;102523.03;5060346;28;19920;-49
2023/04/09 06:14:51;;;;;;;;;;;;;;;7.96;96.56;102517.84;5056795;28;19923;-52
2023/04/09 06:17:17;;;;;;;;;;;;;;;8.09;96.65;102527.19;5059644;28;19935;-51
2023/04/09 06:19:42;;;;;;;;;;;;;;;8.22;96.33;102528.88;5062641;28;19926;-52
2023/04/09 06:22:11;;;;;;;;;;;;;;;8.33;96.22;102527.88;5041755;28;19913;-51
2023/04/09 06:24:36;;;;;;;;;;;;;;;8.39;96.23;102524.84;5052739;28;19982;-50
2023/04/09 06:27:01;;;;;;;;;;;;;;;8.45;95.76;102526.13;5051252;28;20438;-50
2023/04/09 06:29:26;;;;;;;;;;;;;;;8.61;96.07;102527.97;5058443;28;19923;-54
2023/04/09 06:31:52;;;;;;;;;;;;;;;8.65;95.50;102527.38;5056597;28;19917;-51
2023/04/09 06:34:17;;;;;;;;;;;;;;;8.71;95.95;102524.31;5056312;28;20356;-50
2023/04/09 06:36:43;;;;;;;;;;;;;;;8.81;95.57;102531.78;5056259;28;20425;-50
2023/04/09 06:39:08;;;;;;;;;;;;;;;8.87;95.81;102532.16;5058802;28;19916;-53
2023/04/09 06:41:34;;;;;;;;;;;;;;;8.99;94.87;102535.47;5055502;28;19915;-53
2023/04/09 06:43:59;;;;;;;;;;;;;;;9.18;95.33;102532.34;5050733;28;19920;-52
2023/04/09 06:46:25;;;;;;;;;;;;;;;9.29;95.11;102538.13;5056076;28;19953;-52
2023/04/09 06:48:50;;;;;;;;;;;;;;;9.39;94.33;102537.84;5052054;28;19939;-51
2023/04/09 06:51:15;;;;;;;;;;;;;;;9.44;93.15;102539.03;5051842;28;19970;-50
2023/04/09 06:53:40;;;;;;;;;;;;;;;9.52;94.63;102534.34;5052115;28;20007;-52
2023/04/09 06:56:06;;;;;;;;;;;;;;;9.53;90.64;102537.00;5053250;28;20283;-50
2023/04/09 06:58:31;;;;;;;;;;;;;;;9.60;93.37;102536.56;5041052;28;19970;-53
2023/04/09 07:00:56;;;;;;;;;;;;;;;9.57;92.92;102538.94;5057467;28;20314;-50
2023/04/09 07:03:22;;;;;;;;;;;;;;;9.62;93.49;102540.09;5051812;28;20294;-51
2023/04/09 07:05:47;;;;;;;;;;;;;;;9.66;91.82;102552.34;5050483;28;19917;-53
2023/04/09 07:08:13;;;;;;;;;;;;;;;9.72;92.06;102548.38;5054320;28;19916;-53
2023/04/09 07:10:38;;;;;;;;;;;;;;;9.77;91.97;102541.78;5051347;28;20475;-52
2023/04/09 07:13:03;;;;;;;;;;;;;;;9.82;91.00;102542.94;5058748;28;19966;-53
2023/04/09 07:15:29;;;;;;;;;;;;;;;9.96;91.10;102536.94;5050890;28;19921;-53
2023/04/09 07:17:56;;;;;;;;;;;;;;;10.05;91.02;102532.28;5049617;28;19916;-54
2023/04/09 07:20:21;;;;;;;;;;;;;;;10.10;90.44;102542.84;5055131;28;20439;-54
2023/04/09 07:22:46;;;;;;;;;;;;;;;10.15;89.75;102542.31;5053342;28;19921;-50
2023/04/09 07:25:12;;;;;;;;;;;;;;;10.16;89.70;102543.19;5058265;28;19958;-54
2023/04/09 07:27:37;;;;;;;;;;;;;;;10.26;89.45;102545.53;5052000;28;19920;-45
2023/04/09 07:30:03;;;;;;;;;;;;;;;10.33;88.85;102547.63;5057170;28;19924;-50
2023/04/09 07:32:28;;;;;;;;;;;;;;;10.38;88.96;102547.91;5037893;28;19921;-44
2023/04/09 07:34:54;;;;;;;;;;;;;;;10.48;89.15;102555.31;5057240;28;20441;-45
2023/04/09 07:37:19;;;;;;;;;;;;;;;10.53;88.43;102560.72;5052819;28;19967;-45
2023/04/09 07:39:45;;;;;;;;;;;;;;;10.50;87.96;102551.16;5053055;28;19979;-48
2023/04/09 07:42:10;;;;;;;;;;;;;;;10.48;87.36;102548.47;5052387;28;19919;-46
2023/04/09 07:44:36;;;;;;;;;;;;;;;10.53;87.84;102547.84;5044840;28;19916;-45
2023/04/09 07:47:01;;;;;;;;;;;;;;;10.58;87.73;102544.72;5048605;28;19931;-47
2023/04/09 07:49:27;;;;;;;;;;;;;;;10.63;87.80;102553.59;5049169;28;19912;-44
2023/04/09 07:51:52;;;;;;;;;;;;;;;10.73;87.29;102545.53;5044935;28;20015;-47
2023/04/09 07:54:19;;;;;;;;;;;;;;;10.88;86.55;102539.47;5052161;28;20005;-47
2023/04/09 07:56:45;;;;;;;;;;;;;;;10.95;86.22;102539.88;5051223;28;19916;-49
2023/04/09 07:59:10;;;;;;;;;;;;;;;11.07;85.41;102546.47;5049225;28;19921;-47
2023/04/09 08:01:35;;;;;;;;;;;;;;;10.97;84.71;102545.09;5050433;28;20012;-46
2023/04/09 08:04:01;;;;;;;;;;;;;;;10.88;85.69;102542.03;5051847;28;20045;-46
2023/04/09 08:06:27;;;;;;;;;;;;;;;10.79;85.96;102534.69;5048438;28;20291;-47
2023/04/09 08:08:52;;;;;;;;;;;;;;;10.69;85.91;102542.75;5043477;28;19975;-47
2023/04/09 08:11:23;;;;;;;;;;;;;;;10.59;85.59;102548.19;5051464;28;19916;-45
2023/04/09 08:13:49;;;;;;;;;;;;;;;10.52;85.77;102552.09;5052344;28;19921;-48
2023/04/09 08:16:14;;;;;;;;;;;;;;;10.47;86.08;102556.09;5052113;28;20279;-45
2023/04/09 08:18:39;;;;;;;;;;;;;;;10.56;86.69;102546.34;5049956;28;20397;-46
2023/04/09 08:21:05;;;;;;;;;;;;;;;10.83;85.96;102554.66;5037542;28;19939;-45
2023/04/09 08:23:30;;;;;;;;;;;;;;;11.07;84.79;102554.19;5056149;28;19913;-45
2023/04/09 08:25:56;;;;;;;;;;;;;;;11.20;85.73;102544.63;5050464;28;20036;-45
2023/04/09 08:28:22;;;;;;;;;;;;;;;11.31;84.89;102537.47;5051203;28;19962;-48
2023/04/09 08:30:47;;;;;;;;;;;;;;;11.36;85.33;102553.16;5051242;28;19942;-47
2023/04/09 08:33:12;;;;;;;;;;;;;;;11.30;85.04;102546.00;5054680;28;19929;-45
2023/04/09 08:35:39;;;;;;;;;;;;;;;11.30;84.01;102538.28;5056283;28;19943;-46
2023/04/09 08:38:05;;;;;;;;;;;;;;;11.27;84.62;102538.97;5054335;28;19916;-45
2023/04/09 08:40:33;;;;;;;;;;;;;;;11.30;84.49;102546.00;5055863;28;19931;-46
2023/04/09 08:42:58;;;;;;;;;;;;;;;11.37;84.19;102536.88;5050242;28;20015;-46
2023/04/09 08:45:24;;;;;;;;;;;;;;;11.36;84.71;102529.97;5055264;28;20277;-49
2023/04/09 08:47:50;;;;;;;;;;;;;;;11.34;84.10;102536.72;5053697;28;19927;-46
2023/04/09 08:50:16;;;;;;;;;;;;;;;11.40;84.71;102535.34;5052936;28;19919;-46
2023/04/09 08:52:41;;;;;;;;;;;;;;;11.47;84.19;102528.84;5058241;28;19908;-45
2023/04/09 08:55:07;;;;;;;;;;;;;;;11.53;84.34;102530.03;5056056;28;19916;-48
2023/04/09 08:57:38;;;;;;;;;;;;;;;11.62;84.83;102532.16;5063320;28;19908;-46
2023/04/09 09:00:04;;;;;;;;;;;;;;;11.68;84.49;102532.47;5056498;28;19999;-46
2023/04/09 09:02:30;;;;;;;;;;;;;;;11.78;83.79;102532.13;5053951;28;20003;-48
2023/04/09 09:04:59;;;;;;;;;;;;;;;11.92;83.94;102527.69;5059522;28;20007;-45
2023/04/09 09:07:26;;;;;;;;;;;;;;;12.07;83.94;102531.03;5055371;28;19912;-47
2023/04/09 09:09:58;;;;;;;;;;;;;;;12.20;82.96;102531.63;5055614;28;19958;-48
2023/04/09 09:12:34;;;;;;;;;;;;;;;12.27;82.76;102534.56;5056982;28;19909;-47
2023/04/09 09:15:00;;;;;;;;;;;;;;;12.27;81.35;102538.84;5046869;28;19916;-47
2023/04/09 09:17:25;;;;;;;;;;;;;;;12.19;81.31;102533.28;5055996;28;20419;-46
2023/04/09 09:19:50;;;;;;;;;;;;;;;12.11;82.86;102529.47;5057283;28;19924;-46
2023/04/09 09:22:16;;;;;;;;;;;;;;;12.12;81.91;102527.75;5059103;28;20498;-48
2023/04/09 09:24:46;;;;;;;;;;;;;;;12.15;83.06;102525.34;5046687;28;20426;-48
2023/04/09 09:27:13;;;;;;;;;;;;;;;12.16;82.32;102524.53;5051970;28;19917;-47
2023/04/09 09:29:40;;;;;;;;;;;;;;;12.15;81.82;102535.66;5034138;28;20294;-45
2023/04/09 09:32:11;;;;;;;;;;;;;;;12.12;82.55;102523.50;5055939;28;19913;-45
2023/04/09 09:34:37;;;;;;;;;;;;;;;12.15;82.21;102522.78;5052323;28;19916;-47
2023/04/09 09:37:22;;;;;;;;;;;;;;;12.24;82.40;102521.50;5051421;28;19913;-45
2023/04/09 09:39:47;;;;;;;;;;;;;;;12.38;82.12;102518.69;5054562;28;19920;-48
2023/04/09 09:42:12;;;;;;;;;;;;;;;12.54;81.50;102514.31;5039636;28;19920;-46
2023/04/09 09:44:38;;;;;;;;;;;;;;;12.72;81.41;102514.28;5051260;28;19952;-48
2023/04/09 09:47:03;;;;;;;;;;;;;;;12.88;81.37;102500.38;5052204;28;19924;-48
2023/04/09 09:49:28;;;;;;;;;;;;;;;12.97;80.80;102505.03;5051038;28;19970;-46
2023/04/09 09:51:56;;;;;;;;;;;;;;;12.96;80.42;102501.59;5054285;28;19916;-45
2023/04/09 09:54:24;;;;;;;;;;;;;;;13.00;80.12;102494.88;5050760;28;19919;-46
2023/04/09 09:56:51;;;;;;;;;;;;;;;12.98;79.52;102496.47;5035690;28;20014;-46
2023/04/09 09:59:22;;;;;;;;;;;;;;;13.04;80.06;102496.75;5049497;28;19920;-48
2023/04/09 10:01:52;;;;;;;;;;;;;;;13.07;79.94;102491.75;5040384;28;19912;-45
2023/04/09 10:04:18;;;;;;;;;;;;;;;13.12;79.59;102490.25;5050527;28;20336;-49
2023/04/09 10:06:44;;;;;;;;;;;;;;;13.22;80.02;102491.53;5050227;28;20291;-46
2023/04/09 10:09:10;;;;;;;;;;;;;;;13.38;78.38;102488.81;5053709;28;19921;-46
2023/04/09 10:11:36;;;;;;;;;;;;;;;13.38;79.08;102478.47;5056747;28;19974;-46
2023/04/09 10:14:02;;;;;;;;;;;;;;;13.35;76.63;102479.22;5040865;28;20015;-47
2023/04/09 10:16:28;;;;;;;;;;;;;;;13.41;77.97;102482.06;5053332;28;19908;-46
2023/04/09 10:18:56;;;;;;;;;;;;;;;13.48;76.46;102483.22;5053867;28;20379;-46
2023/04/09 10:21:29;;;;;;;;;;;;;;;13.62;76.63;102474.31;5056255;28;19912;-45
2023/04/09 10:23:55;;;;;;;;;;;;;;;13.80;76.56;102471.59;5056990;28;20378;-47
2023/04/09 10:26:26;;;;;;;;;;;;;;;13.90;74.76;102473.75;5054820;28;19982;-48
2023/04/09 10:29:13;;;;;;;;;;;;;;;14.00;76.09;102467.22;5034190;28;19912;-47
2023/04/09 10:31:52;;;;;;;;;;;;;;;14.08;75.34;102462.38;5057384;28;19909;-49
2023/04/09 10:34:19;;;;;;;;;;;;;;;14.18;75.10;102462.75;5050365;28;20003;-53
2023/04/09 10:37:05;;;;;;;;;;;;;;;14.34;74.81;102456.47;5054392;28;20611;-53
2023/04/09 10:39:30;;;;;;;;;;;;;;;14.49;74.05;102462.25;5055849;28;19955;-52
2023/04/09 10:41:57;;;;;;;;;;;;;;;14.51;73.52;102453.69;5041474;28;19943;-52
2023/04/09 10:44:25;;;;;;;;;;;;;;;14.46;74.17;102454.38;5041216;28;20050;-51
2023/04/09 10:46:53;;;;;;;;;;;;;;;14.39;74.53;102446.31;5053881;28;19916;-52
2023/04/09 10:49:20;;;;;;;;;;;;;;;14.36;74.16;102452.25;5051839;28;19923;-52
2023/04/09 10:51:53;;;;;;;;;;;;;;;14.32;72.15;102446.88;5056691;28;20345;-46
2023/04/09 10:54:33;;;;;;;;;;;;;;;14.29;73.38;102445.06;5052413;28;19913;-46
2023/04/09 10:57:07;;;;;;;;;;;;;;;14.36;73.76;102441.88;5058304;28;19943;-48
2023/04/09 10:59:33;;;;;;;;;;;;;;;14.51;73.67;102435.56;5051488;28;19916;-45
2023/04/09 11:01:58;;;;;;;;;;;;;;;14.52;69.03;102437.31;5050645;28;19908;-45
2023/04/09 11:04:29;;;;;;;;;;;;;;;14.51;70.31;102432.97;5055477;28;19920;-47
2023/04/09 11:06:54;;;;;;;;;;;;;;;14.56;69.84;102431.41;5059065;28;19909;-45
2023/04/09 11:09:20;;;;;;;;;;;;;;;14.47;70.59;102430.25;5055074;28;19921;-48
2023/04/09 11:11:50;;;;;;;;;;;;;;;14.62;71.62;102423.88;5056117;28;20011;-46
2023/04/09 11:14:19;;;;;;;;;;;;;;;14.87;68.46;102426.53;5050869;28;19916;-44
2023/04/09 11:16:46;;;;;;;;;;;;;;;15.13;69.63;102422.25;5053399;28;19912;-47
2023/04/09 11:19:11;;;;;;;;;;;;;;;15.29;67.46;102416.78;5049553;28;19939;-45
2023/04/09 11:21:36;;;;;;;;;;;;;;;15.42;68.96;102422.34;5051031;28;19917;-52
2023/04/09 11:24:02;;;;;;;;;;;;;;;15.66;65.73;102423.19;5049926;28;19927;-52
2023/04/09 11:26:34;;;;;;;;;;;;;;;15.69;65.84;102419.81;5049241;28;19912;-52
2023/04/09 11:29:03;;;;;;;;;;;;;;;15.70;65.93;102416.38;5037492;28;19909;-51
2023/04/09 11:31:29;;;;;;;;;;;;;;;15.68;62.45;102415.44;5048332;28;19955;-53
2023/04/09 11:33:54;;;;;;;;;;;;;;;15.65;63.01;102425.72;5050030;28;19955;-51
2023/04/09 11:36:20;;;;;;;;;;;;;;;15.53;62.80;102415.78;5053005;28;19932;-54
2023/04/09 11:38:47;;;;;;;;;;;;;;;15.53;60.39;102419.28;5050243;28;20019;-52
2023/04/09 11:41:13;;;;;;;;;;;;;;;15.58;64.40;102419.41;5053020;28;19915;-49
2023/04/09 11:43:38;;;;;;;;;;;;;;;15.77;62.90;102416.63;5053617;28;19924;-50
2023/04/09 11:46:04;;;;;;;;;;;;;;;15.85;61.96;102403.00;5055824;28;19916;-50
2023/04/09 11:48:30;;;;;;;;;;;;;;;15.78;61.02;102408.00;5050424;28;19939;-52
2023/04/09 11:50:56;;;;;;;;;;;;;;;15.77;61.35;102418.31;5058777;28;19912;-53
2023/04/09 11:53:21;;;;;;;;;;;;;;;15.69;62.85;102401.66;5059068;28;20202;-54
2023/04/09 11:55:51;;;;;;;;;;;;;;;15.61;60.95;102400.50;5062017;28;19955;-54
2023/04/09 11:58:16;;;;;;;;;;;;;;;15.70;62.65;102404.28;5053037;28;19993;-51
2023/04/09 12:00:41;;;;;;;;;;;;;;;15.82;60.63;102404.66;5050589;28;20279;-51
2023/04/09 12:03:08;;;;;;;;;;;;;;;15.81;59.67;102402.91;5055922;28;20295;-53
2023/04/09 12:05:34;;;;;;;;;;;;;;;15.86;59.61;102399.59;5043723;28;19976;-50
2023/04/09 12:08:00;;;;;;;;;;;;;;;15.85;60.46;102403.91;5054155;28;20383;-48
2023/04/09 12:10:30;;;;;;;;;;;;;;;15.81;59.79;102399.44;5060919;28;19995;-46
2023/04/09 12:13:00;;;;;;;;;;;;;;;15.75;61.61;102407.03;5056941;28;20387;-45
2023/04/09 12:15:29;;;;;;;;;;;;;;;15.82;60.46;102401.19;5052390;28;20371;-45
2023/04/09 12:17:56;;;;;;;;;;;;;;;16.13;59.12;102392.63;5061265;28;19912;-46
2023/04/09 12:20:25;;;;;;;;;;;;;;;16.43;58.45;102405.59;5053305;28;20845;-45
2023/04/09 12:22:50;;;;;;;;;;;;;;;16.52;58.35;102399.81;5055888;28;19925;-45
2023/04/09 12:25:15;;;;;;;;;;;;;;;16.52;59.39;102397.22;5056613;28;19920;-45
2023/04/09 12:27:41;;;;;;;;;;;;;;;16.50;57.33;102397.19;5053149;28;20370;-45
2023/04/09 12:30:06;;;;;;;;;;;;;;;16.47;56.39;102396.19;5056496;28;20356;-47
2023/04/09 12:32:31;;;;;;;;;;;;;;;16.43;57.99;102395.22;5054890;28;20313;-48
2023/04/09 12:34:57;;;;;;;;;;;;;;;16.45;56.10;102390.97;5056408;28;20007;-46
2023/04/09 12:37:22;;;;;;;;;;;;;;;16.38;56.08;102391.63;5058748;28;19952;-46
2023/04/09 12:39:48;;;;;;;;;;;;;;;16.32;56.29;102387.16;5055454;28;19923;-46